Impacts TAF Board INFO
FOR SITUATIONAL AWARENESS. NOT TO BE USED FOR FLIGHT PLANNING PURPOSES.
IDs:

KEYW - Key West Intl, FL, US

Issued at 1942 UTC 11 Dec 2017
Updated at 2234 UTC 11 Dec 2017
Potential Impact None Slight Moderate High
Time2153Z 11/23Z 12/00Z 12/01Z 12/02Z 12/03Z 12/04Z 12/05Z 12/06Z 12/07Z 12/08Z 12/09Z 12/10Z 12/11Z>>
Type OBS PRVL PRVL PRVL PRVL PRVL PRVL PRVL PRVL PRVL PRVL PRVL PRVL PRVL
VIS 10 >6 >6 >6 >6 >6 >6 >6 >6 >6 >6 >6 >6 >6
CIG -- -- -- -- -- -- -- -- -- -- -- -- -- --
Cover CLR FEW FEW FEW FEW FEW FEW FEW FEW FEW FEW FEW FEW FEW
FltCat VFR VFR VFR VFR VFR VFR VFR VFR VFR VFR VFR VFR VFR VFR
WX -- -- -- -- -- -- -- -- -- -- -- -- -- --
WDir 360 360 360 360 350 350 350 350 350 350 350 350 350 350
WSpd 11 10 10 10 5 5 5 5 5 5 5 5 5 5
WGst -- -- -- -- -- -- -- -- -- -- -- -- -- --

Raw TAF
KEYW 111942Z 1120/1218 01014G20KT P6SM FEW035
  FM112100 36010KT P6SM FEW035
  FM120200 35005KT P6SM FEW035
  FM121600 31012KT P6SM FEW030 SCT050


Raw METAR
KEYW 112153Z 36011KT 10SM CLR 18/10 A3017 RMK AO2 SLP215 T01830100
KEYW 112053Z 36010G18KT 10SM CLR 19/11 A3017 RMK AO2 SLP215 T01890106 56014
KEYW 111953Z 36013KT 10SM CLR 19/10 A3017 RMK AO2 SLP216 T01890100

METAR Board
Radar Display
Forecast Discussion

FOR SITUATIONAL AWARENESS. NOT TO BE USED FOR FLIGHT PLANNING PURPOSES.